Flight Track Log - Related Links

Times and Time Zones

All times are in EDT time to prevent confusion due to time zone crossing. See the N682RW flight status page for this flight to view local times or setup timezone preferences in your user account.

Time Position Orientation Groundspeed Altitude Reporting Facility
EDT Latitude Longitude Course Direction KTS MPH feet Rate Location/Type
Sun 07:56:04 PM 40.6500 -74.1833 229° Southwest 206 237 1,900  Level New York TRACON
Sun 07:57:04 PM 40.6167 -74.2333 229° Southwest 250 288 4,200 2,750 Climbing New York TRACON
Sun 07:58:04 PM 40.6333 -74.3167 285° West 250 288 7,400 2,947 Climbing New York TRACON
Sun 07:58:58 PM 40.6667 -74.4000 298° West 272 313 9,800 2,129 Climbing New York TRACON
Sun 08:00:39 PM 40.7836 -74.5119 324° Northwest 340 391 12,900 2,037 Climbing New York Center
Sun 08:01:40 PM 40.8539 -74.5953 318° Northwest 345 397 15,300 2,479 Climbing New York Center
Sun 08:02:40 PM 40.8600 -74.7275 274° West 340 391 17,900 2,083 Climbing New York Center
Sun 08:03:41 PM 40.8497 -74.8419 263° West 338 389 19,500 1,636 Climbing New York Center
Sun 08:04:41 PM 40.8325 -74.9756 260° West 357 411 21,200 1,831 Climbing New York Center
Sun 08:05:39 PM 40.8153 -75.1114 261° West 374 430 23,100 1,765 Climbing New York Center
Sun 08:06:40 PM 40.7953 -75.2556 260° West 388 447 24,700 1,736 Climbing New York Center
Sun 08:07:40 PM 40.7731 -75.3992 258° West 399 459 26,600 1,700 Climbing New York Center
Sun 08:08:40 PM 40.7817 -75.5478 274° West 399 459 28,100 1,488 Climbing New York Center
Sun 08:09:41 PM 40.7925 -75.6911 276° West 406 467 29,600 1,869 Climbing New York Center
Sun 08:10:42 PM 40.8011 -75.8342 275° West 406 467 31,900 1,916 Climbing New York Center
Sun 08:11:40 PM 40.8078 -75.9664 274° West 386 444 33,400 1,059 Climbing New York Center
Sun 08:12:41 PM 40.8164 -76.1014 275° West 374 430 34,000 303 Climbing New York Center
Sun 08:13:39 PM 40.8244 -76.2419 274° West 374 430 34,000  Level New York Center
Sun 08:14:40 PM 40.8328 -76.3797 275° West 374 430 34,000  Level New York Center
Sun 08:15:40 PM 40.8425 -76.5206 275° West 379 436 34,000  Level New York Center
Sun 08:16:40 PM 40.8483 -76.6581 273° West 384 442 34,000  Level New York Center
Sun 08:17:41 PM 40.8558 -76.7961 274° West 384 442 34,000  Level New York Center
Sun 08:18:41 PM 40.8633 -76.9367 274° West 390 449 34,000  Level New York Center
Sun 08:20:34 PM 40.8781 -77.2025 274° West 366 421 34,000  Level Cleveland Center
Sun 08:21:34 PM 40.8844 -77.3450 273° West 371 427 34,000  Level Cleveland Center
Sun 08:22:34 PM 40.8925 -77.4900 274° West 383 441 34,000  Level Cleveland Center
Sun 08:23:34 PM 40.8983 -77.6328 273° West 389 448 34,000  Level Cleveland Center
Sun 08:24:34 PM 40.9042 -77.7753 273° West 394 453 34,000  Level Cleveland Center
Sun 08:25:34 PM 40.9117 -77.9181 274° West 394 453 34,000  Level Cleveland Center
Sun 08:26:34 PM 40.9211 -78.0631 275° West 394 453 34,000  Level Cleveland Center
Sun 08:27:34 PM 40.9408 -78.2053 280° West 399 459 34,000  Level Cleveland Center
Sun 08:28:34 PM 40.9606 -78.3503 280° West 406 467 34,000  Level Cleveland Center
Sun 08:29:34 PM 40.9800 -78.4956 280° West 406 467 34,000  Level Cleveland Center
Sun 08:30:34 PM 40.9950 -78.6408 278° West 406 467 34,000  Level Cleveland Center
Sun 08:31:34 PM 41.0142 -78.7833 280° West 406 467 34,000  Level Cleveland Center
Sun 08:32:34 PM 41.0286 -78.9261 278° West 406 467 34,000  Level Cleveland Center
Sun 08:33:34 PM 41.0453 -79.0689 279° West 406 467 34,000  Level Cleveland Center
Sun 08:34:34 PM 41.0639 -79.2117 280° West 406 467 34,000  Level Cleveland Center
Sun 08:35:34 PM 41.0778 -79.3547 277° West 406 467 34,000  Level Cleveland Center
Sun 08:36:34 PM 41.0939 -79.4947 279° West 406 467 34,000  Level Cleveland Center
Sun 08:37:34 PM 41.1097 -79.6378 278° West 401 461 34,000  Level Cleveland Center
Sun 08:38:34 PM 41.1256 -79.7811 278° West 401 461 34,000  Level Cleveland Center
Sun 08:39:34 PM 41.1389 -79.9242 277° West 401 461 34,000  Level Cleveland Center
Sun 08:40:34 PM 41.1561 -80.0619 279° West 395 455 34,000  Level Cleveland Center
Sun 08:41:34 PM 41.1714 -80.1997 278° West 389 448 34,000  Level Cleveland Center
Sun 08:42:34 PM 41.1844 -80.3569 276° West 389 448 34,000  Level Cleveland Center
Sun 08:43:34 PM 41.2011 -80.4975 279° West 389 448 34,000  Level Cleveland Center
Sun 08:44:34 PM 41.2136 -80.6411 277° West 389 448 34,000  Level Cleveland Center
Sun 08:45:34 PM 41.2281 -80.7792 278° West 389 448 34,000  Level Cleveland Center
Sun 08:46:34 PM 41.2403 -80.9172 277° West 389 448 34,000  Level Cleveland Center
Sun 08:47:34 PM 41.2564 -81.0581 279° West 390 449 34,000  Level Cleveland Center
Sun 08:48:34 PM 41.2683 -81.1992 276° West 384 442 34,000  Level Cleveland Center
Sun 08:49:34 PM 41.2800 -81.3208 277° West 384 442 34,000  Level Cleveland Center
Sun 08:50:34 PM 41.2958 -81.4592 279° West 384 442 34,000  Level Cleveland Center
Sun 08:51:34 PM 41.3072 -81.5975 276° West 389 448 34,000  Level Cleveland Center
Sun 08:52:34 PM 41.3206 -81.7333 277° West 384 442 34,000  Level Cleveland Center
Sun 08:53:34 PM 41.3336 -81.8717 277° West 384 442 34,000  Level Cleveland Center
Sun 08:54:34 PM 41.3444 -82.0131 276° West 384 442 34,000  Level Cleveland Center
Sun 08:55:34 PM 41.3569 -82.1711 276° West 394 453 34,000  Level Cleveland Center
Sun 08:56:34 PM 41.3653 -82.3094 275° West 394 453 34,000  Level Cleveland Center
Sun 08:57:34 PM 41.3739 -82.4344 275° West 388 447 34,000  Level Cleveland Center
Sun 08:58:34 PM 41.3819 -82.5756 274° West 388 447 34,000  Level Cleveland Center
Sun 08:59:34 PM 41.3875 -82.7169 273° West 388 447 34,000  Level Cleveland Center
Sun 09:00:34 PM 41.3972 -82.8614 275° West 388 447 34,000  Level Cleveland Center
Sun 09:01:34 PM 41.4050 -83.0000 274° West 388 447 34,000  Level Cleveland Center
Sun 09:02:34 PM 41.4103 -83.1414 273° West 388 447 34,000  Level Cleveland Center
Sun 09:03:34 PM 41.4169 -83.2967 273° West 388 447 34,000  Level Cleveland Center
Sun 09:04:34 PM 41.4261 -83.4383 275° West 388 447 34,000  Level Cleveland Center
Sun 09:05:34 PM 41.4328 -83.5800 274° West 388 447 34,000  Level Cleveland Center
Sun 09:06:34 PM 41.4394 -83.7244 274° West 388 447 34,000  Level Cleveland Center
Sun 09:07:34 PM 41.4439 -83.8658 272° West 388 447 34,000 -50 Level Cleveland Center
Sun 09:08:34 PM 41.4519 -84.0131 274° West 388 447 33,900 -550 Descending Cleveland Center
Sun 09:09:34 PM 41.4581 -84.1547 273° West 388 447 32,900 -1,036 Descending Cleveland Center
Sun 09:10:53 PM 41.4689 -84.3453 274° West 394 453 31,500 -1,106 Descending Chicago Center
Sun 09:11:55 PM 41.4742 -84.4936 273° West 399 459 30,300 -726 Descending Chicago Center
Sun 09:12:57 PM 41.4800 -84.6456 273° West 408 470 30,000 -145 Descending Chicago Center
Sun 09:13:59 PM 41.4867 -84.7964 273° West 410 472 30,000  Level Chicago Center
Sun 09:15:02 PM 41.4908 -84.9458 272° West 406 467 30,000 -432 Level Chicago Center
Sun 09:16:04 PM 41.4969 -85.0961 273° West 404 465 29,100 -2,516 Descending Chicago Center
Sun 09:17:06 PM 41.5019 -85.2833 272° West 415 478 24,800 -2,710 Descending Chicago Center
Sun 09:18:08 PM 41.5056 -85.4422 272° West 419 482 23,500 -1,790 Descending Chicago Center
Sun 09:19:10 PM 41.5128 -85.5897 274° West 394 453 21,100 -2,274 Descending Chicago Center
Sun 09:20:12 PM 41.5161 -85.7314 272° West 377 434 18,800 -1,935 Descending Chicago Center
Sun 09:21:14 PM 41.5203 -85.8686 272° West 367 422 17,100 -1,548 Descending Chicago Center
Sun 09:22:16 PM 41.5236 -86.0022 272° West 357 411 15,600 -2,081 Descending Chicago Center
Sun 09:23:18 PM 41.5244 -86.1317 271° West 352 405 12,800 -2,274 Descending Chicago Center
Sun 09:24:20 PM 41.5231 -86.2642 269° West 356 410 10,900 -1,355 Descending Chicago Center
Sun 09:25:22 PM 41.5228 -86.4122 270° West 335 386 10,000 -871 Descending Chicago Center
Sun 09:26:24 PM 41.5206 -86.5172 268° West 283 326 9,100 -1,161 Descending Chicago Center
Sun 09:27:26 PM 41.5214 -86.6150 271° West 266 306 7,600 -1,210 Descending Chicago Center
Sun 09:28:28 PM 41.5206 -86.7197 269° West 259 298 6,600 -726 Descending Chicago Center
Sun 09:29:30 PM 41.5192 -86.8161 269° West 261 300 6,100 -288 Descending Chicago Center
Sun 09:30:33 PM 41.5183 -86.9103 269° West 256 295 6,000 -48 Descending Chicago Center
Sun 09:31:35 PM 41.5183 -87.0072 270° West 261 300 6,000  Level Chicago Center
Sun 09:32:37 PM 41.5447 -87.0958 292° West 261 300 6,000 -677 Level Chicago Center
Sun 09:33:39 PM 41.5708 -87.2031 288° West 258 297 4,600 -968 Descending Chicago Center
Sun 09:34:41 PM 41.5919 -87.2908 288° West 253 291 4,000 -290 Descending Chicago Center
Sun 09:35:43 PM 41.6133 -87.3783 288° West 251 289 4,000  Level Chicago Center
Sun 09:36:45 PM 41.6344 -87.4642 288° West 248 285 4,000 -49 Level Chicago Center
Sun 09:37:46 PM 41.6525 -87.5478 286° West 244 281 3,900 -390 Descending Chicago Center
Sun 09:38:48 PM 41.6858 -87.6139 304° West 209 241 3,200 -823 Descending Chicago Center
Sun 09:39:50 PM 41.7203 -87.6625 314° West 191 220 2,200 -823 Descending Chicago Center
Sun 09:40:52 PM 41.7483 -87.7019 314° West 172 198 1,500 -677 Descending Chicago Center
Sun 09:41:54 PM 41.7733 -87.7369 314° West 151 174 800 -677 Descending Chicago Center
Sun 09:43:00 PM 41.7833 -87.7500 340° North  Level FlightAware Approximate

Login

Don't have an account? Register now (free) for customized features, flight alerts, and more!